Time;durP1;ratioP1;P1;durP2;ratioP2;P2;SDS_P1;SDS_P2;PMS_P1;PMS_P2;Temp;Humidity;BMP_temperature;BMP_pressure;BME280_temperature;BME280_humidity;BME280_pressure;Samples;Min_cycle;Max_cycle;Signal;HPM_P1;HPM_P2
2023/05/03 00:01:32;;;;;;;3.83;1.88;;;8.50;97.60;;;;;;5037334;28;20481;-81
2023/05/03 00:04:01;;;;;;;3.90;1.63;;;8.40;97.60;;;;;;5020909;28;20040;-82
2023/05/03 00:06:46;;;;;;;5.65;2.30;;;8.40;97.90;;;;;;5028768;28;20535;-81
2023/05/03 00:09:13;;;;;;;7.50;2.42;;;8.40;98.00;;;;;;5024374;28;20487;-81
2023/05/03 00:11:38;;;;;;;4.60;1.90;;;8.40;98.20;;;;;;5041917;28;20107;-81
2023/05/03 00:14:04;;;;;;;7.57;2.10;;;8.30;98.40;;;;;;5036482;28;20175;-80
2023/05/03 00:16:29;;;;;;;3.17;2.17;;;8.30;98.10;;;;;;5021198;28;20024;-80
2023/05/03 00:18:55;;;;;;;2.80;1.85;;;8.30;98.50;;;;;;5024162;28;20021;-81
2023/05/03 00:21:21;;;;;;;5.55;2.10;;;8.30;98.30;;;;;;5038891;28;20013;-80
2023/05/03 00:23:46;;;;;;;2.28;1.80;;;8.30;98.60;;;;;;5040039;28;20218;-81
2023/05/03 00:26:12;;;;;;;8.20;1.88;;;8.30;99.00;;;;;;5040228;28;20115;-80
2023/05/03 00:28:38;;;;;;;6.72;2.47;;;8.30;99.00;;;;;;5021815;28;20036;-81
2023/05/03 00:31:10;;;;;;;4.82;2.10;;;8.30;99.20;;;;;;5036002;28;20024;-80
2023/05/03 00:33:40;;;;;;;8.32;2.15;;;8.30;99.10;;;;;;5037707;28;20064;-80
2023/05/03 00:36:11;;;;;;;6.53;1.77;;;8.20;99.00;;;;;;5038551;28;20090;-80
2023/05/03 00:38:38;;;;;;;6.28;2.25;;;8.20;98.70;;;;;;5038279;28;20022;-81
2023/05/03 00:41:04;;;;;;;4.93;1.77;;;8.20;99.60;;;;;;5039520;28;20025;-81
2023/05/03 00:43:34;;;;;;;4.10;2.35;;;8.10;99.50;;;;;;5019333;28;20017;-81
2023/05/03 00:46:02;;;;;;;4.90;1.80;;;8.10;99.80;;;;;;5029262;28;20021;-80
2023/05/03 00:48:28;;;;;;;3.33;1.85;;;8.10;99.90;;;;;;5038694;28;20033;-80
2023/05/03 00:50:57;;;;;;;5.22;2.20;;;8.10;99.90;;;;;;5037403;28;20354;-81
2023/05/03 00:53:23;;;;;;;6.15;1.83;;;8.10;99.90;;;;;;5036245;28;20036;-80
2023/05/03 00:55:52;;;;;;;9.57;2.10;;;8.10;99.90;;;;;;5039024;28;20021;-81
2023/05/03 00:58:27;;;;;;;7.30;1.85;;;8.00;99.90;;;;;;5003944;28;20057;-81
2023/05/03 01:00:53;;;;;;;10.65;1.83;;;7.90;99.90;;;;;;5039487;28;20506;-82
2023/05/03 01:03:19;;;;;;;4.13;1.77;;;7.80;99.90;;;;;;5036791;28;20028;-80
2023/05/03 01:05:57;;;;;;;7.05;1.92;;;7.80;99.90;;;;;;5036650;28;20265;-81
2023/05/03 01:08:44;;;;;;;5.65;2.03;;;7.70;99.90;;;;;;5020913;28;20082;-80
2023/05/03 01:11:22;;;;;;;8.18;1.98;;;7.70;99.90;;;;;;5019897;28;20025;-80
2023/05/03 01:14:00;;;;;;;6.00;1.92;;;7.70;99.90;;;;;;5015532;28;20091;-80
2023/05/03 01:16:30;;;;;;;5.72;2.17;;;7.70;99.90;;;;;;5019582;28;20115;-80
2023/05/03 01:19:00;;;;;;;5.03;2.13;;;7.60;99.90;;;;;;5036327;28;20372;-80
2023/05/03 01:21:28;;;;;;;6.55;2.40;;;7.60;99.90;;;;;;5015996;28;20014;-81
2023/05/03 01:24:17;;;;;;;3.08;1.92;;;7.60;99.90;;;;;;5018690;28;20545;-80
2023/05/03 01:26:43;;;;;;;3.22;2.17;;;7.60;99.90;;;;;;5019842;28;20025;-80
2023/05/03 01:29:09;;;;;;;3.25;1.83;;;7.60;99.90;;;;;;5037292;28;20027;-82
2023/05/03 01:31:42;;;;;;;7.78;2.30;;;7.60;99.90;;;;;;5037963;28;20029;-81
2023/05/03 01:34:24;;;;;;;3.95;2.20;;;7.50;99.90;;;;;;5037169;28;20032;-80
2023/05/03 01:36:56;;;;;;;6.28;2.20;;;7.50;99.90;;;;;;5025900;28;20397;-80
2023/05/03 01:39:50;;;;;;;7.13;2.00;;;7.50;99.90;;;;;;5033758;28;20024;-80
2023/05/03 01:42:16;;;;;;;6.57;2.38;;;7.40;99.90;;;;;;5017817;28;20052;-81
2023/05/03 01:44:43;;;;;;;7.32;2.35;;;7.40;99.90;;;;;;5020303;28;20293;-81
2023/05/03 01:47:09;;;;;;;3.38;2.20;;;7.40;99.90;;;;;;5025120;28;20060;-81
2023/05/03 01:49:35;;;;;;;4.45;2.38;;;7.40;99.90;;;;;;5036520;28;20024;-80
2023/05/03 01:52:02;;;;;;;2.42;1.80;;;7.40;99.90;;;;;;5024915;28;20179;-81
2023/05/03 01:54:28;;;;;;;4.13;2.15;;;7.40;99.90;;;;;;5019878;28;20017;-81
2023/05/03 01:56:54;;;;;;;4.45;2.33;;;7.30;99.90;;;;;;5018435;28;20469;-82
2023/05/03 01:59:20;;;;;;;5.03;2.65;;;7.30;99.90;;;;;;5028010;28;20525;-81
2023/05/03 02:01:46;;;;;;;3.88;2.50;;;7.30;99.90;;;;;;5019479;28;20151;-80
2023/05/03 02:04:11;;;;;;;5.72;2.33;;;7.30;99.90;;;;;;5022428;28;20027;-81
2023/05/03 02:06:37;;;;;;;6.60;4.47;;;7.20;99.90;;;;;;5024531;28;20037;-81
2023/05/03 02:09:05;;;;;;;5.28;2.20;;;7.20;99.90;;;;;;5015044;28;20029;-81
2023/05/03 02:11:31;;;;;;;6.13;2.72;;;7.20;99.90;;;;;;5033249;28;20021;-80
2023/05/03 02:13:56;;;;;;;8.07;2.45;;;7.20;99.90;;;;;;5014058;28;20043;-81
2023/05/03 02:16:22;;;;;;;2.60;2.30;;;7.20;99.90;;;;;;5035075;28;20056;-80
2023/05/03 02:18:47;;;;;;;14.20;2.85;;;7.20;99.90;;;;;;5032772;28;20457;-81
2023/05/03 02:21:13;;;;;;;5.18;2.55;;;7.20;99.90;;;;;;5037689;28;20017;-80
2023/05/03 02:23:39;;;;;;;7.05;2.50;;;7.20;99.90;;;;;;5038009;28;20674;-81
2023/05/03 02:26:05;;;;;;;2.45;2.25;;;7.20;99.90;;;;;;5035906;28;20039;-80
2023/05/03 02:28:31;;;;;;;5.20;2.20;;;7.10;99.90;;;;;;5017759;28;20052;-81
2023/05/03 02:30:56;;;;;;;8.95;2.63;;;7.20;99.90;;;;;;5019233;28;20024;-81
2023/05/03 02:33:22;;;;;;;6.78;2.70;;;7.20;99.90;;;;;;5022433;28;20438;-81
2023/05/03 02:35:47;;;;;;;5.68;2.70;;;7.20;99.90;;;;;;5024043;28;21273;-81
2023/05/03 02:38:13;;;;;;;5.78;2.97;;;7.10;99.90;;;;;;5016912;28;20399;-80
2023/05/03 02:40:39;;;;;;;5.90;2.40;;;7.10;99.90;;;;;;5034500;28;20033;-80
2023/05/03 02:43:04;;;;;;;9.15;2.60;;;7.10;99.90;;;;;;5023580;28;20487;-80
2023/05/03 02:45:30;;;;;;;5.57;2.63;;;7.10;99.90;;;;;;5017291;28;20021;-80
2023/05/03 02:47:56;;;;;;;5.78;2.65;;;7.00;99.90;;;;;;5038115;28;20029;-82
2023/05/03 02:50:21;;;;;;;6.25;2.83;;;7.00;99.90;;;;;;5017686;28;20021;-82
2023/05/03 02:52:47;;;;;;;7.68;2.88;;;7.00;99.90;;;;;;5031513;28;20032;-82
2023/05/03 02:55:20;;;;;;;5.57;2.60;;;6.90;99.90;;;;;;5035784;28;20029;-80
2023/05/03 02:57:46;;;;;;;3.08;2.78;;;6.90;99.90;;;;;;5034806;28;20025;-81
2023/05/03 03:00:14;;;;;;;5.60;2.67;;;6.90;99.90;;;;;;5035335;28;20013;-81
2023/05/03 03:02:39;;;;;;;3.42;2.90;;;6.90;99.90;;;;;;5036279;28;20022;-80
2023/05/03 03:05:07;;;;;;;6.07;2.90;;;6.80;99.90;;;;;;5033197;28;20029;-81
2023/05/03 03:07:33;;;;;;;6.38;2.78;;;6.90;99.90;;;;;;5033638;28;20037;-80
2023/05/03 03:09:59;;;;;;;12.35;3.03;;;6.80;99.90;;;;;;5034314;28;20300;-81
2023/05/03 03:12:27;;;;;;;7.30;2.70;;;6.80;99.90;;;;;;5032590;28;20120;-81
2023/05/03 03:14:53;;;;;;;5.05;2.50;;;6.80;99.90;;;;;;5018182;28;20365;-81
2023/05/03 03:17:19;;;;;;;9.25;2.67;;;6.80;99.90;;;;;;5024113;28;20078;-80
2023/05/03 03:19:44;;;;;;;8.18;3.15;;;6.80;99.90;;;;;;5020636;28;20183;-80
2023/05/03 03:22:10;;;;;;;6.90;2.72;;;6.70;99.90;;;;;;5028832;28;20021;-80
2023/05/03 03:24:36;;;;;;;8.38;2.65;;;6.70;99.90;;;;;;5035696;28;20025;-81
2023/05/03 03:27:02;;;;;;;4.30;3.05;;;6.70;99.90;;;;;;5028493;28;20496;-80
2023/05/03 03:29:30;;;;;;;5.50;3.05;;;6.60;99.90;;;;;;5031205;28;20034;-80
2023/05/03 03:31:56;;;;;;;7.22;2.90;;;6.60;99.90;;;;;;5040696;28;20090;-81
2023/05/03 03:34:24;;;;;;;10.88;3.50;;;6.60;99.90;;;;;;5023434;28;20468;-80
2023/05/03 03:36:49;;;;;;;9.38;2.95;;;6.60;99.90;;;;;;5029288;28;20067;-80
2023/05/03 03:39:15;;;;;;;8.48;3.55;;;6.60;99.90;;;;;;5038344;28;20036;-81
2023/05/03 03:41:41;;;;;;;8.40;3.45;;;6.50;99.90;;;;;;5040095;28;20029;-80
2023/05/03 03:44:07;;;;;;;11.57;3.80;;;6.50;99.90;;;;;;5030196;28;20549;-81
2023/05/03 03:46:33;;;;;;;9.68;3.63;;;6.50;99.90;;;;;;5042916;28;20091;-81
2023/05/03 03:48:59;;;;;;;5.05;3.45;;;6.50;99.90;;;;;;5038374;28;20025;-81
2023/05/03 03:51:24;;;;;;;4.00;3.10;;;6.50;99.90;;;;;;5037366;28;20025;-81
2023/05/03 03:53:50;;;;;;;9.00;3.47;;;6.50;99.90;;;;;;5020474;28;20061;-81
2023/05/03 03:56:16;;;;;;;8.60;2.88;;;6.40;99.90;;;;;;5035634;28;20595;-81
2023/05/03 03:58:41;;;;;;;9.00;4.05;;;6.40;99.90;;;;;;5021519;28;20021;-80
2023/05/03 04:01:07;;;;;;;5.30;3.67;;;6.40;99.90;;;;;;5037679;28;20052;-80
2023/05/03 04:03:33;;;;;;;9.65;3.35;;;6.40;99.90;;;;;;5022906;28;20033;-80
2023/05/03 04:05:58;;;;;;;7.50;3.60;;;6.40;99.90;;;;;;5038172;28;20052;-80
2023/05/03 04:08:24;;;;;;;12.63;4.07;;;6.40;99.90;;;;;;5022099;28;20029;-80
2023/05/03 04:10:50;;;;;;;11.52;3.75;;;6.40;99.90;;;;;;5021502;28;20468;-80
2023/05/03 04:13:18;;;;;;;8.77;4.03;;;6.30;99.90;;;;;;5020981;28;20080;-81
2023/05/03 04:15:44;;;;;;;14.63;4.93;;;6.30;99.90;;;;;;5038373;28;20222;-80
2023/05/03 04:18:10;;;;;;;15.23;4.80;;;6.40;99.90;;;;;;5038123;28;20086;-81
2023/05/03 04:20:36;;;;;;;12.15;3.97;;;6.40;99.90;;;;;;5038888;28;20021;-81
2023/05/03 04:23:01;;;;;;;11.25;4.30;;;6.40;99.90;;;;;;5038280;28;20025;-81
2023/05/03 04:25:27;;;;;;;8.27;4.10;;;6.50;99.90;;;;;;5037984;28;20048;-80
2023/05/03 04:27:53;;;;;;;9.93;4.28;;;6.60;99.90;;;;;;5037811;28;20393;-81
2023/05/03 04:30:18;;;;;;;9.95;4.07;;;6.60;99.90;;;;;;5030181;28;20554;-80
2023/05/03 04:32:46;;;;;;;6.15;3.40;;;6.60;99.90;;;;;;5020341;28;20117;-81
2023/05/03 04:35:11;;;;;;;10.43;3.72;;;6.60;99.90;;;;;;5040360;28;20013;-80
2023/05/03 04:37:39;;;;;;;8.02;3.83;;;6.60;99.90;;;;;;5040845;28;20029;-81
2023/05/03 04:40:08;;;;;;;15.85;3.88;;;6.70;99.90;;;;;;5054998;28;20028;-80
2023/05/03 04:42:35;;;;;;;11.43;3.95;;;6.70;99.90;;;;;;5036108;28;20140;-80
2023/05/03 04:45:05;;;;;;;14.00;4.35;;;6.80;99.90;;;;;;5052117;28;20021;-81
2023/05/03 04:47:34;;;;;;;9.85;3.88;;;6.80;99.90;;;;;;5042380;28;20042;-81
2023/05/03 04:50:00;;;;;;;12.82;4.40;;;6.80;99.90;;;;;;5037064;28;20032;-80
2023/05/03 04:52:26;;;;;;;11.57;3.95;;;6.90;99.90;;;;;;5034296;28;20524;-81
2023/05/03 04:54:59;;;;;;;10.30;4.30;;;6.90;99.90;;;;;;5020070;28;20040;-81
2023/05/03 04:57:25;;;;;;;7.38;3.60;;;7.00;99.90;;;;;;5034758;28;20565;-81
2023/05/03 04:59:52;;;;;;;9.63;4.00;;;7.10;99.90;;;;;;5035100;28;20037;-81
2023/05/03 05:02:21;;;;;;;10.73;4.40;;;7.20;99.90;;;;;;5018981;28;20025;-80
2023/05/03 05:04:47;;;;;;;6.15;4.22;;;7.20;99.90;;;;;;5027016;28;20024;-80
2023/05/03 05:07:12;;;;;;;14.27;4.32;;;7.20;99.90;;;;;;5021179;28;20024;-81
2023/05/03 05:09:39;;;;;;;7.72;3.70;;;7.20;99.90;;;;;;5039035;28;20345;-80
2023/05/03 05:12:05;;;;;;;16.90;4.53;;;7.30;99.90;;;;;;5038557;28;20118;-80
2023/05/03 05:14:31;;;;;;;10.45;3.97;;;7.40;99.90;;;;;;5019475;28;20407;-81
2023/05/03 05:16:56;;;;;;;8.52;4.18;;;7.50;99.90;;;;;;5018836;28;20029;-80
2023/05/03 05:19:22;;;;;;;10.95;5.20;;;7.60;99.90;;;;;;5032733;28;20566;-80
2023/05/03 05:21:48;;;;;;;11.50;4.60;;;7.60;99.90;;;;;;5035678;28;20032;-81
2023/05/03 05:24:13;;;;;;;13.70;4.32;;;7.60;99.90;;;;;;5025176;28;20167;-80
2023/05/03 05:26:41;;;;;;;10.00;4.53;;;7.70;99.90;;;;;;5026333;28;20053;-81
2023/05/03 05:29:06;;;;;;;8.38;3.90;;;7.80;99.90;;;;;;5024976;28;20017;-81
2023/05/03 05:31:35;;;;;;;9.95;3.90;;;7.90;99.90;;;;;;5037264;28;20032;-81
2023/05/03 05:34:01;;;;;;;8.25;3.97;;;8.00;99.90;;;;;;5018366;28;20092;-82
2023/05/03 05:36:26;;;;;;;8.40;3.63;;;8.00;99.90;;;;;;5026274;28;20151;-80
2023/05/03 05:38:52;;;;;;;10.55;3.55;;;8.10;99.90;;;;;;5021715;28;20472;-81
2023/05/03 05:41:20;;;;;;;6.35;3.75;;;8.20;99.90;;;;;;5039355;28;20524;-81
2023/05/03 05:43:46;;;;;;;5.53;3.60;;;8.30;99.90;;;;;;5035568;28;20091;-81
2023/05/03 05:48:47;;;;;;;7.07;4.07;;;8.40;99.90;;;;;;5041787;23;20425;-81
2023/05/03 05:51:13;;;;;;;11.85;4.03;;;8.50;99.90;;;;;;5006150;28;20017;-81
2023/05/03 05:53:38;;;;;;;5.95;3.65;;;8.60;99.90;;;;;;5014094;28;20037;-82
2023/05/03 05:56:05;;;;;;;9.75;3.78;;;8.60;99.90;;;;;;5013384;28;20031;-81
2023/05/03 05:58:31;;;;;;;8.30;3.92;;;8.70;99.90;;;;;;5013462;28;20040;-81
2023/05/03 06:01:00;;;;;;;7.25;3.55;;;8.70;99.90;;;;;;5012329;28;20481;-80
2023/05/03 06:03:25;;;;;;;5.35;3.40;;;8.70;99.90;;;;;;5013008;28;20428;-81
2023/05/03 06:05:51;;;;;;;6.80;2.92;;;8.80;99.90;;;;;;5014809;28;20030;-81
2023/05/03 06:08:17;;;;;;;5.97;3.17;;;8.90;99.90;;;;;;5007199;28;20022;-81
2023/05/03 06:10:44;;;;;;;9.18;3.17;;;9.00;99.90;;;;;;5004803;28;20091;-81
2023/05/03 06:13:10;;;;;;;4.82;3.42;;;9.10;99.90;;;;;;5016035;28;20044;-80
2023/05/03 06:15:40;;;;;;;8.20;3.33;;;9.20;99.90;;;;;;5006213;28;20017;-83
2023/05/03 06:18:05;;;;;;;6.72;3.35;;;9.20;99.90;;;;;;4997805;28;20014;-81
2023/05/03 06:20:31;;;;;;;7.65;3.17;;;9.40;99.90;;;;;;5016882;28;20131;-79
2023/05/03 06:22:57;;;;;;;6.78;3.00;;;9.40;99.90;;;;;;5000034;28;20124;-82
2023/05/03 06:25:22;;;;;;;9.98;3.40;;;9.40;99.90;;;;;;5015049;28;20104;-81
2023/05/03 06:27:48;;;;;;;12.05;3.40;;;9.50;99.90;;;;;;5012629;28;20085;-82
2023/05/03 06:30:16;;;;;;;8.25;3.05;;;9.60;99.90;;;;;;5004805;28;20095;-81
2023/05/03 06:32:42;;;;;;;10.50;2.83;;;9.70;99.90;;;;;;5013878;28;20037;-81
2023/05/03 06:35:08;;;;;;;5.97;2.72;;;9.80;99.90;;;;;;5005556;28;20622;-82
2023/05/03 06:37:34;;;;;;;7.25;3.05;;;9.90;99.90;;;;;;5014749;28;20030;-82
2023/05/03 06:40:00;;;;;;;6.95;3.30;;;10.00;99.90;;;;;;5015150;28;20010;-79
2023/05/03 06:42:26;;;;;;;10.43;2.80;;;10.10;99.90;;;;;;5013002;28;20024;-82
2023/05/03 06:44:52;;;;;;;6.95;3.45;;;10.10;99.90;;;;;;5012208;28;20106;-81
2023/05/03 06:47:19;;;;;;;4.45;2.55;;;10.10;99.90;;;;;;5001585;28;20030;-79
2023/05/03 06:49:45;;;;;;;3.80;2.63;;;10.20;99.90;;;;;;5014831;28;20057;-80
2023/05/03 06:52:11;;;;;;;5.47;2.90;;;10.20;99.90;;;;;;5017973;28;20072;-79
2023/05/03 06:54:39;;;;;;;9.82;3.15;;;10.30;99.90;;;;;;5021409;28;20058;-80
2023/05/03 06:57:09;;;;;;;10.40;3.72;;;10.30;99.90;;;;;;5005555;28;20081;-79
2023/05/03 06:59:35;;;;;;;7.38;3.00;;;10.40;99.90;;;;;;4998512;28;20467;-79
2023/05/03 07:02:00;;;;;;;6.55;2.90;;;10.50;99.90;;;;;;5007743;28;20129;-79
2023/05/03 07:04:26;;;;;;;7.25;2.83;;;10.50;99.90;;;;;;5006415;28;20036;-80
2023/05/03 07:06:52;;;;;;;7.78;2.65;;;10.60;99.90;;;;;;5015736;28;20014;-80
2023/05/03 07:09:17;;;;;;;6.88;2.60;;;10.60;99.90;;;;;;5017910;28;20254;-80
2023/05/03 07:11:48;;;;;;;5.97;2.80;;;10.70;99.90;;;;;;5013831;28;20029;-80
2023/05/03 07:14:14;;;;;;;6.07;2.72;;;10.80;99.90;;;;;;4998660;28;20065;-80
2023/05/03 07:16:40;;;;;;;12.93;3.05;;;10.90;99.90;;;;;;5005313;28;20535;-79
2023/05/03 07:19:06;;;;;;;5.82;2.78;;;11.00;99.90;;;;;;5017817;28;20029;-80
2023/05/03 07:21:34;;;;;;;4.25;2.63;;;11.10;99.90;;;;;;5022236;28;20039;-85
2023/05/03 07:24:00;;;;;;;7.75;2.63;;;11.20;99.90;;;;;;5030544;28;20022;-85
2023/05/03 07:26:26;;;;;;;6.70;2.50;;;11.20;99.90;;;;;;5021561;28;20044;-85
2023/05/03 07:28:52;;;;;;;7.15;2.72;;;11.20;99.90;;;;;;5006689;28;20030;-87
2023/05/03 07:31:19;;;;;;;6.25;2.13;;;11.30;99.90;;;;;;5008737;28;20034;-86
2023/05/03 07:33:45;;;;;;;3.72;1.92;;;11.40;99.90;;;;;;5007888;28;20037;-87
2023/05/03 07:36:11;;;;;;;10.90;1.80;;;11.50;99.90;;;;;;5015385;28;20079;-85
2023/05/03 07:38:36;;;;;;;3.42;2.10;;;11.60;99.80;;;;;;5023876;28;20034;-86
2023/05/03 07:41:02;;;;;;;6.00;2.88;;;11.70;99.30;;;;;;5011188;28;20060;-86
2023/05/03 07:43:29;;;;;;;8.40;1.92;;;11.70;98.70;;;;;;5018409;28;20022;-86
2023/05/03 07:45:55;;;;;;;4.90;2.10;;;11.60;98.50;;;;;;5011980;28;20030;-86
2023/05/03 07:48:21;;;;;;;2.55;2.00;;;11.60;98.20;;;;;;5011382;28;20554;-86
2023/05/03 07:50:46;;;;;;;6.72;2.15;;;11.50;98.30;;;;;;5021195;28;20033;-86
2023/05/03 07:53:15;;;;;;;7.75;2.08;;;11.70;99.30;;;;;;5022562;28;20026;-86
2023/05/03 07:55:41;;;;;;;7.15;2.63;;;11.80;99.00;;;;;;5022446;28;20029;-87
2023/05/03 07:58:07;;;;;;;5.72;2.55;;;11.90;98.10;;;;;;5011739;28;20104;-86
2023/05/03 08:00:33;;;;;;;9.13;2.28;;;12.10;98.30;;;;;;5008128;28;20041;-86
2023/05/03 08:03:01;;;;;;;7.13;2.30;;;12.30;97.90;;;;;;5019050;28;20030;-86
2023/05/03 08:05:26;;;;;;;7.05;2.45;;;12.40;97.80;;;;;;5006404;28;20602;-80
2023/05/03 08:07:52;;;;;;;6.70;2.55;;;12.50;97.30;;;;;;5014139;28;20096;-80
2023/05/03 08:10:20;;;;;;;4.72;2.60;;;12.70;96.60;;;;;;5016079;28;20028;-80
2023/05/03 08:12:48;;;;;;;6.38;2.63;;;12.80;97.50;;;;;;5006588;28;20107;-81
2023/05/03 08:15:14;;;;;;;6.63;2.25;;;13.20;96.60;;;;;;5020537;28;20480;-81
2023/05/03 08:17:44;;;;;;;3.65;2.15;;;13.60;95.70;;;;;;5018311;28;20068;-82
2023/05/03 08:20:11;;;;;;;5.82;2.53;;;13.80;95.50;;;;;;5017619;28;20021;-80
2023/05/03 08:22:40;;;;;;;4.38;2.42;;;14.00;94.90;;;;;;5020044;28;20382;-81
2023/05/03 08:25:06;;;;;;;6.03;2.78;;;14.30;94.40;;;;;;5005908;28;20028;-81
2023/05/03 08:27:32;;;;;;;8.20;3.20;;;14.50;93.30;;;;;;5019275;28;20021;-81
2023/05/03 08:30:00;;;;;;;6.88;2.60;;;14.40;93.20;;;;;;5017842;28;20072;-80
2023/05/03 08:32:28;;;;;;;4.93;1.90;;;14.60;93.20;;;;;;5019727;28;20117;-80
2023/05/03 08:34:56;;;;;;;7.72;2.08;;;14.80;91.00;;;;;;5018980;28;20025;-80
2023/05/03 08:37:24;;;;;;;8.32;2.20;;;15.10;90.50;;;;;;5017909;28;20018;-80
2023/05/03 08:39:51;;;;;;;6.05;2.05;;;15.00;90.70;;;;;;5016219;28;20092;-81
2023/05/03 08:42:16;;;;;;;5.93;2.50;;;15.20;90.50;;;;;;5015706;28;20033;-81
2023/05/03 08:44:50;;;;;;;5.53;2.00;;;15.60;90.30;;;;;;5020253;28;20025;-80
2023/05/03 08:47:16;;;;;;;7.45;3.08;;;15.80;88.40;;;;;;5019439;28;20061;-80
2023/05/03 08:49:42;;;;;;;4.55;2.20;;;15.80;87.60;;;;;;5014430;28;20388;-80
2023/05/03 08:52:20;;;;;;;4.78;1.90;;;15.90;86.10;;;;;;5006189;28;20025;-80
2023/05/03 08:54:46;;;;;;;5.25;2.10;;;15.70;85.70;;;;;;5001583;28;20084;-80
2023/05/03 08:57:14;;;;;;;7.18;2.60;;;15.90;86.40;;;;;;4997404;28;20049;-80
2023/05/03 08:59:47;;;;;;;8.38;2.63;;;16.10;85.30;;;;;;5015304;28;20061;-80
2023/05/03 09:02:14;;;;;;;5.22;2.00;;;16.40;88.70;;;;;;5001612;28;20049;-80
2023/05/03 09:04:39;;;;;;;8.13;2.17;;;16.90;84.10;;;;;;5020687;28;20073;-80
2023/05/03 09:07:09;;;;;;;4.20;2.17;;;16.80;82.00;;;;;;5004376;28;20115;-81
2023/05/03 09:09:35;;;;;;;6.28;2.33;;;16.40;82.00;;;;;;5020630;28;20029;-81
2023/05/03 09:12:03;;;;;;;5.18;2.13;;;16.40;81.80;;;;;;5023913;28;20021;-81
2023/05/03 09:14:29;;;;;;;5.18;2.20;;;16.50;83.90;;;;;;5025201;28;20304;-85
2023/05/03 09:16:54;;;;;;;7.15;2.63;;;16.90;81.50;;;;;;5026960;28;20422;-85
2023/05/03 09:19:20;;;;;;;3.30;2.40;;;16.90;78.30;;;;;;5020876;28;20059;-85
2023/05/03 09:21:46;;;;;;;7.45;2.80;;;17.00;80.40;;;;;;5023681;28;20018;-86
2023/05/03 09:24:17;;;;;;;2.22;2.03;;;17.20;78.20;;;;;;5023010;28;20045;-86
2023/05/03 09:26:44;;;;;;;4.13;2.42;;;17.40;79.60;;;;;;5013184;28;20033;-86
2023/05/03 09:29:25;;;;;;;8.68;2.33;;;17.20;78.30;;;;;;5019744;28;20009;-86
2023/05/03 09:31:59;;;;;;;4.43;2.45;;;17.50;77.70;;;;;;5011629;28;20621;-85
2023/05/03 09:34:25;;;;;;;6.75;2.35;;;17.90;75.90;;;;;;5006876;28;20709;-85
2023/05/03 09:36:50;;;;;;;6.72;2.70;;;17.90;75.30;;;;;;5023181;28;20053;-85
2023/05/03 09:39:18;;;;;;;6.82;2.80;;;17.70;77.40;;;;;;5010059;28;20054;-85
2023/05/03 09:41:43;;;;;;;3.75;2.30;;;18.00;76.60;;;;;;5020919;28;20017;-84
2023/05/03 09:44:09;;;;;;;6.60;2.80;;;18.20;77.00;;;;;;5023497;28;20031;-85
2023/05/03 09:46:36;;;;;;;7.75;3.05;;;18.30;74.30;;;;;;5022721;28;20021;-84
2023/05/03 09:49:03;;;;;;;4.28;2.25;;;18.50;73.10;;;;;;5023948;28;20026;-85
2023/05/03 09:51:33;;;;;;;6.50;2.17;;;18.80;73.50;;;;;;5032754;28;20041;-84
2023/05/03 09:53:59;;;;;;;5.65;2.47;;;19.20;73.10;;;;;;5035338;28;20033;-85
2023/05/03 09:56:28;;;;;;;5.57;2.00;;;19.20;69.50;;;;;;5025624;28;20492;-85
2023/05/03 09:58:53;;;;;;;8.27;2.58;;;19.20;68.80;;;;;;5009341;28;20021;-84
2023/05/03 10:01:23;;;;;;;8.73;2.55;;;19.10;68.10;;;;;;5009801;28;20037;-84
2023/05/03 10:03:50;;;;;;;3.85;2.08;;;19.10;69.40;;;;;;4997521;28;20026;-85
2023/05/03 10:06:23;;;;;;;4.63;2.28;;;19.30;68.00;;;;;;5002147;28;20370;-85
2023/05/03 10:08:57;;;;;;;6.88;2.60;;;19.60;66.50;;;;;;5010464;28;20133;-85
2023/05/03 10:11:26;;;;;;;6.38;2.50;;;20.00;67.00;;;;;;5004634;28;20025;-84
2023/05/03 10:13:55;;;;;;;7.45;2.22;;;20.20;65.10;;;;;;5004504;28;20111;-84
2023/05/03 10:16:26;;;;;;;4.95;2.08;;;20.20;63.90;;;;;;5022785;28;20022;-84
2023/05/03 10:19:10;;;;;;;10.60;2.55;;;20.10;66.30;;;;;;5018619;28;20507;-85
2023/05/03 10:21:57;;;;;;;6.07;3.05;;;20.30;64.90;;;;;;5002434;28;20434;-85
2023/05/03 10:24:24;;;;;;;9.30;2.20;;;20.40;64.00;;;;;;5019975;28;20053;-84
2023/05/03 10:26:54;;;;;;;5.13;2.42;;;20.40;64.10;;;;;;5009433;28;20047;-84
2023/05/03 10:29:47;;;;;;;7.15;2.08;;;20.40;62.40;;;;;;5019267;28;20477;-83
2023/05/03 10:32:33;;;;;;;6.47;2.28;;;20.40;62.00;;;;;;4999776;28;20555;-85
2023/05/03 10:35:13;;;;;;;4.68;2.90;;;20.50;62.90;;;;;;5019832;28;20487;-84
2023/05/03 10:37:42;;;;;;;7.07;2.60;;;20.50;61.90;;;;;;5018316;28;20040;-84
2023/05/03 10:40:12;;;;;;;3.63;3.25;;;20.60;63.00;;;;;;5019186;28;20049;-84
2023/05/03 10:42:41;;;;;;;5.18;2.80;;;20.80;62.80;;;;;;5009388;28;20022;-85
2023/05/03 10:45:08;;;;;;;5.63;2.40;;;21.20;61.00;;;;;;5007115;28;20044;-85
2023/05/03 10:47:34;;;;;;;4.38;2.45;;;21.80;60.60;;;;;;5003845;28;20029;-85
2023/05/03 10:50:15;;;;;;;5.70;2.45;;;21.80;59.30;;;;;;4997544;28;20044;-84
2023/05/03 10:52:41;;;;;;;5.60;2.97;;;21.80;58.40;;;;;;5016567;28;20038;-80
2023/05/03 10:55:09;;;;;;;4.00;2.60;;;21.90;57.20;;;;;;5003166;28;20021;-80
2023/05/03 10:57:38;;;;;;;8.25;2.67;;;21.80;57.40;;;;;;4997157;28;20124;-80
2023/05/03 11:00:11;;;;;;;5.90;2.92;;;21.40;57.90;;;;;;4996529;28;20116;-81
2023/05/03 11:02:54;;;;;;;6.15;3.03;;;21.10;57.80;;;;;;5014832;28;20456;-80
2023/05/03 11:05:20;;;;;;;;;;;20.60;59.30;;;;;;5015077;28;20010;-79
2023/05/03 11:07:47;;;;;;;10.90;2.83;;;20.50;58.20;;;;;;4995454;28;19905;-80
2023/05/03 11:10:24;;;;;;;7.40;2.45;;;20.80;59.40;;;;;;5002466;28;20054;-80
2023/05/03 11:12:49;;;;;;;12.15;2.92;;;20.80;59.00;;;;;;5014828;28;20021;-80
2023/05/03 11:15:17;;;;;;;4.70;2.60;;;21.00;58.00;;;;;;5012120;28;20026;-80
2023/05/03 11:17:43;;;;;;;9.07;2.72;;;21.00;57.20;;;;;;5000698;28;20029;-79
2023/05/03 11:20:10;;;;;;;7.50;2.67;;;21.10;57.20;;;;;;5018078;28;20135;-79
2023/05/03 11:22:36;;;;;;;6.38;2.83;;;21.00;59.00;;;;;;5012852;28;20113;-81
2023/05/03 11:25:02;;;;;;;4.25;2.85;;;21.10;57.90;;;;;;5010736;28;20069;-79
2023/05/03 11:27:27;;;;;;;7.50;2.95;;;21.30;57.80;;;;;;5009594;28;20495;-80
2023/05/03 11:29:57;;;;;;;5.97;3.30;;;21.60;58.10;;;;;;5013676;28;20033;-81
2023/05/03 11:32:29;;;;;;;5.47;2.92;;;21.80;56.80;;;;;;5012858;28;20030;-80
2023/05/03 11:34:55;;;;;;;3.37;2.70;;;22.00;56.70;;;;;;4994397;28;20026;-80
2023/05/03 11:37:23;;;;;;;3.97;2.58;;;21.90;56.70;;;;;;5013684;28;20032;-80
2023/05/03 11:39:50;;;;;;;6.95;2.60;;;22.00;56.00;;;;;;5012113;28;20048;-79
2023/05/03 11:42:16;;;;;;;2.65;2.20;;;21.80;55.30;;;;;;5004326;28;20108;-80
2023/05/03 11:44:41;;;;;;;11.00;3.10;;;21.60;55.00;;;;;;5018270;28;20121;-81
2023/05/03 11:47:10;;;;;;;5.57;2.70;;;21.80;55.90;;;;;;5000932;28;20089;-79
2023/05/03 11:49:35;;;;;;;8.52;2.95;;;21.90;55.90;;;;;;5007038;28;20129;-81
2023/05/03 11:52:01;;;;;;;4.80;3.03;;;22.10;57.10;;;;;;5015919;28;20031;-80
2023/05/03 11:54:27;;;;;;;8.38;2.97;;;22.20;55.70;;;;;;5016373;28;20034;-80
2023/05/03 11:56:57;;;;;;;6.22;2.50;;;22.40;54.20;;;;;;5016218;28;20072;-80
2023/05/03 11:59:38;;;;;;;7.57;2.75;;;22.20;54.30;;;;;;5015733;28;20125;-80
2023/05/03 12:02:09;;;;;;;5.05;2.67;;;22.00;54.50;;;;;;5005690;28;20064;-80
2023/05/03 12:04:42;;;;;;;11.75;2.88;;;22.00;54.90;;;;;;5014829;28;20033;-79
2023/05/03 12:07:12;;;;;;;4.90;2.45;;;21.80;55.10;;;;;;5015228;28;20018;-80
2023/05/03 12:09:38;;;;;;;8.20;3.20;;;21.80;54.50;;;;;;4997393;28;20030;-79
2023/05/03 12:12:04;;;;;;;9.02;2.60;;;22.20;54.90;;;;;;5021509;28;20481;-80
2023/05/03 12:15:00;;;;;;;9.52;3.17;;;22.30;54.50;;;;;;5015089;28;20105;-80
2023/05/03 12:17:38;;;;;;;4.93;3.00;;;22.40;53.80;;;;;;5012745;28;20022;-80
2023/05/03 12:20:18;;;;;;;7.63;3.00;;;22.10;54.00;;;;;;5019677;28;20026;-80
2023/05/03 12:22:47;;;;;;;3.47;3.00;;;21.70;56.30;;;;;;4998316;28;20032;-80
2023/05/03 12:25:12;;;;;;;5.07;3.28;;;22.00;55.20;;;;;;5014172;28;20030;-80
2023/05/03 12:27:38;;;;;;;5.20;2.80;;;22.20;55.50;;;;;;5010728;28;20071;-79
2023/05/03 12:30:04;;;;;;;4.97;2.67;;;22.50;53.70;;;;;;4996953;28;20284;-79
2023/05/03 12:32:30;;;;;;;5.25;2.90;;;22.40;53.70;;;;;;5015535;28;20030;-79
2023/05/03 12:34:56;;;;;;;11.68;3.25;;;22.20;53.90;;;;;;5017318;28;20027;-79
2023/05/03 12:37:24;;;;;;;4.57;2.70;;;22.30;53.20;;;;;;5017583;28;20026;-83
2023/05/03 12:39:50;;;;;;;7.75;2.90;;;22.40;53.30;;;;;;5001643;28;20075;-84
2023/05/03 12:42:24;;;;;;;3.70;2.80;;;22.60;52.50;;;;;;5006679;28;20049;-83
2023/05/03 12:44:50;;;;;;;5.30;3.08;;;22.90;52.10;;;;;;5021552;28;20022;-83
2023/05/03 12:47:16;;;;;;;8.00;3.50;;;23.10;52.80;;;;;;5014454;28;20099;-84
2023/05/03 12:49:41;;;;;;;5.88;3.00;;;23.30;50.80;;;;;;5016392;28;20057;-84
2023/05/03 12:52:07;;;;;;;7.05;3.42;;;23.30;51.30;;;;;;5016574;28;20021;-83
2023/05/03 12:54:33;;;;;;;12.35;3.38;;;22.90;50.90;;;;;;5022196;28;20030;-83
2023/05/03 12:57:02;;;;;;;6.28;3.20;;;22.80;51.90;;;;;;5018446;28;20036;-84